Time;durP1;ratioP1;P1;durP2;ratioP2;P2;SDS_P1;SDS_P2;PMS_P1;PMS_P2;Temp;Humidity;BMP_temperature;BMP_pressure;BME280_temperature;BME280_humidity;BME280_pressure;Samples;Min_cycle;Max_cycle;Signal;HPM_P1;HPM_P2
2022/06/03 00:02:07;;;;;;;5.33;4.67;;;;;;;-145.18;100.00;46592.03;5031898;28;20037;-75
2022/06/03 00:04:48;;;;;;;5.43;4.73;;;;;;;-145.18;100.00;46595.94;5032193;28;20030;-74
2022/06/03 00:07:38;;;;;;;6.73;4.77;;;;;;;-145.18;100.00;46597.88;5031965;28;20481;-75
2022/06/03 00:10:51;;;;;;;6.50;4.70;;;;;;;-145.18;100.00;46603.75;5031699;28;20118;-75
2022/06/03 00:13:51;;;;;;;5.73;4.43;;;;;;;-145.18;100.00;46595.94;4976780;28;20039;-75
2022/06/03 00:16:59;;;;;;;11.33;4.40;;;;;;;-145.18;100.00;46593.97;5031097;28;20052;-74
2022/06/03 00:19:52;;;;;;;5.93;4.77;;;;;;;-145.18;100.00;46582.25;5031386;28;20032;-75
2022/06/03 00:22:35;;;;;;;6.20;4.50;;;;;;;-145.18;100.00;46601.78;5031399;28;20029;-75
2022/06/03 00:25:22;;;;;;;5.63;4.83;;;;;;;-145.18;100.00;46593.97;5031131;28;20068;-75
2022/06/03 00:28:03;;;;;;;6.43;4.83;;;;;;;-145.18;100.00;46586.16;5010653;28;20108;-76
2022/06/03 00:30:57;;;;;;;6.83;4.97;;;;;;;-145.18;100.00;46593.97;5012048;28;20415;-75
2022/06/03 00:33:40;;;;;;;5.97;4.87;;;;;;;-145.18;100.00;46592.03;5004269;28;20046;-74
2022/06/03 00:36:24;;;;;;;9.07;5.63;;;;;;;-145.18;100.00;46586.16;5011545;28;20058;-74
2022/06/03 00:39:01;;;;;;;6.57;5.77;;;;;;;-145.18;100.00;46590.06;5011957;28;20025;-75
2022/06/03 00:41:34;;;;;;;9.23;5.47;;;;;;;-145.18;100.00;46582.25;5011954;28;20057;-74
2022/06/03 00:44:39;;;;;;;5.73;5.13;;;;;;;-145.18;100.00;46584.22;5011509;28;20119;-75
2022/06/03 00:47:11;;;;;;;8.43;5.23;;;;;;;-145.18;100.00;46586.16;5011304;28;20394;-75
2022/06/03 00:49:59;;;;;;;6.57;5.47;;;;;;;-145.18;100.00;46584.22;5025327;28;20108;-74
2022/06/03 00:53:06;;;;;;;7.70;6.00;;;;;;;-145.18;100.00;46580.31;5031352;28;20032;-74
2022/06/03 00:55:56;;;;;;;6.88;5.28;;;;;;;-145.18;100.00;46586.16;5030737;28;20033;-74
2022/06/03 00:58:38;;;;;;;6.27;5.67;;;;;;;-145.18;100.00;46576.41;5030879;28;20029;-74
2022/06/03 01:01:03;;;;;;;12.90;6.20;;;;;;;-145.18;100.00;46582.25;5030875;28;20026;-74
2022/06/03 01:03:47;;;;;;;8.10;5.93;;;;;;;-145.18;100.00;46582.25;5031136;28;20415;-74
2022/06/03 01:06:30;;;;;;;9.17;5.93;;;;;;;-145.18;100.00;46576.41;5030862;28;20029;-74
2022/06/03 01:09:13;;;;;;;9.53;5.70;;;;;;;-145.18;100.00;46576.41;5030628;28;20053;-74
2022/06/03 01:11:52;;;;;;;6.67;5.67;;;;;;;-145.18;100.00;46578.34;5030898;28;20029;-75
2022/06/03 01:14:35;;;;;;;6.80;5.90;;;;;;;-145.18;100.00;46576.41;5030490;28;20203;-74
2022/06/03 01:17:28;;;;;;;7.20;5.63;;;;;;;-145.18;100.00;46584.22;5030694;28;20026;-74
2022/06/03 01:20:06;;;;;;;10.00;6.13;;;;;;;-145.18;100.00;46570.53;5030818;28;20555;-74
2022/06/03 01:22:52;;;;;;;7.93;5.80;;;;;;;-145.18;100.00;46574.44;5030738;28;20025;-74
2022/06/03 01:25:39;;;;;;;11.00;6.50;;;;;;;-145.18;100.00;46578.34;5030626;28;20389;-74
2022/06/03 01:28:26;;;;;;;6.50;5.80;;;;;;;-145.18;100.00;46574.44;5030484;28;20672;-74
2022/06/03 01:31:08;;;;;;;7.47;5.57;;;;;;;-145.18;100.00;46580.31;5030427;28;20501;-74
2022/06/03 01:33:56;;;;;;;10.07;6.03;;;;;;;-145.18;100.00;46570.53;5030343;28;20033;-75
2022/06/03 01:36:49;;;;;;;8.17;6.10;;;;;;;-145.18;100.00;46578.34;5030644;28;20025;-75
2022/06/03 01:39:30;;;;;;;6.67;5.80;;;;;;;-145.18;100.00;46570.53;5030299;28;20502;-74
2022/06/03 01:42:26;;;;;;;8.50;6.30;;;;;;;-145.18;100.00;46570.53;5030122;28;20108;-74
2022/06/03 01:45:22;;;;;;;8.57;6.07;;;;;;;-145.18;100.00;46576.41;5030460;28;20057;-74
2022/06/03 01:48:03;;;;;;;;;;;;;;;-145.18;100.00;46576.41;5030563;28;20041;-75
2022/06/03 01:50:46;;;;;;;9.30;6.43;;;;;;;-145.18;100.00;46570.53;5030423;28;20396;-74
2022/06/03 01:53:33;;;;;;;8.57;6.03;;;;;;;-145.18;100.00;46572.50;5030141;28;20515;-75
2022/06/03 01:56:40;;;;;;;9.60;6.90;;;;;;;-145.18;100.00;46564.69;5030109;28;20064;-75
2022/06/03 01:59:21;;;;;;;8.02;5.95;;;;;;;-145.18;100.00;46566.63;5024167;28;20759;-75
2022/06/03 02:02:13;;;;;;;7.77;6.43;;;;;;;-145.18;100.00;46562.72;5228828;23;20204;-76
2022/06/03 02:04:54;;;;;;;10.70;6.47;;;;;;;-145.18;100.00;46560.78;4960600;28;20684;-76
2022/06/03 02:07:37;;;;;;;10.90;6.30;;;;;;;-145.18;100.00;46564.69;4952035;29;20302;-75
2022/06/03 02:11:01;;;;;;;8.87;6.17;;;;;;;-145.18;100.00;46570.53;4950285;29;20037;-76
2022/06/03 02:13:29;;;;;;;8.20;6.40;;;;;;;-145.18;100.00;46570.53;4912899;29;20044;-76
2022/06/03 02:16:19;;;;;;;10.57;6.70;;;;;;;-145.18;100.00;46613.50;4964961;28;20054;-76
2022/06/03 02:18:59;;;;;;;9.57;7.10;;;;;;;-145.18;100.00;46619.38;4971159;28;20039;-76
2022/06/03 02:21:52;;;;;;;9.23;6.20;;;;;;;-145.18;100.00;46621.31;4971498;28;20046;-76
2022/06/03 02:25:02;;;;;;;9.03;7.13;;;;;;;-145.18;100.00;46615.47;4971739;28;20311;-76
2022/06/03 02:27:55;;;;;;;7.73;6.17;;;;;;;-145.18;100.00;46621.31;4962252;28;20281;-76
2022/06/03 02:30:58;;;;;;;11.37;6.53;;;;;;;-145.18;100.00;46621.31;4971445;28;20280;-76
2022/06/03 02:33:45;;;;;;;10.23;6.97;;;;;;;-145.18;100.00;46623.28;4971112;28;20281;-76
2022/06/03 02:36:47;;;;;;;13.07;6.37;;;;;;;-145.18;100.00;46625.22;4971551;28;20348;-76
2022/06/03 02:39:12;;;;;;;8.90;6.63;;;;;;;-145.18;100.00;46625.22;4975228;28;20338;-76
2022/06/03 02:41:38;;;;;;;11.03;7.17;;;;;;;-145.18;100.00;46635.00;4991965;28;20764;-76
2022/06/03 02:44:25;;;;;;;6.97;6.23;;;;;;;-145.18;100.00;46650.63;4993732;28;20030;-75
2022/06/03 02:47:18;;;;;;;12.30;6.50;;;;;;;-145.18;100.00;46636.94;4994022;28;20454;-76
2022/06/03 02:50:14;;;;;;;10.77;7.30;;;;;;;-145.18;100.00;46642.81;4994498;28;20268;-76
2022/06/03 02:52:48;;;;;;;13.38;7.07;;;;;;;-145.18;100.00;46658.44;4993982;28;20264;-76
2022/06/03 02:55:38;;;;;;;7.87;6.20;;;;;;;-145.18;100.00;46660.41;4994325;28;20038;-76
2022/06/03 02:58:15;;;;;;;10.00;6.57;;;;;;;-145.18;100.00;46646.72;4993796;28;21291;-76
2022/06/03 03:00:55;;;;;;;11.60;6.67;;;;;;;-145.18;100.00;46658.44;4994194;28;20285;-76
2022/06/03 03:03:37;;;;;;;9.73;6.50;;;;;;;-145.18;100.00;46660.41;4993455;28;20761;-77
2022/06/03 03:06:29;;;;;;;7.50;6.17;;;;;;;-145.18;100.00;46662.34;4993924;28;20303;-76
2022/06/03 03:09:26;;;;;;;9.07;6.63;;;;;;;-145.18;100.00;46664.31;4993809;28;20292;-76
2022/06/03 03:12:25;;;;;;;7.40;6.65;;;;;;;-145.18;100.00;46660.41;4993685;28;20636;-75
2022/06/03 03:15:09;;;;;;;8.90;6.57;;;;;;;-145.18;100.00;46660.41;4993794;28;20475;-76
2022/06/03 03:18:01;;;;;;;8.67;6.33;;;;;;;-145.18;100.00;46660.41;4993877;28;20272;-77
2022/06/03 03:21:05;;;;;;;11.97;7.03;;;;;;;-145.18;100.00;46668.22;4993969;28;20268;-76
2022/06/03 03:23:45;;;;;;;7.20;6.47;;;;;;;-145.18;100.00;46668.22;4964734;28;20272;-76
2022/06/03 03:26:50;;;;;;;9.17;6.90;;;;;;;-145.18;100.00;46670.16;4993766;28;20292;-76
2022/06/03 03:29:16;;;;;;;8.77;7.30;;;;;;;-145.18;100.00;46666.25;4964136;28;20264;-76
2022/06/03 03:32:07;;;;;;;7.83;6.70;;;;;;;-145.18;100.00;46664.31;4993866;28;20360;-76
2022/06/03 03:34:54;;;;;;;10.67;6.43;;;;;;;-145.18;100.00;46672.13;4976236;28;20054;-76
2022/06/03 03:37:31;;;;;;;9.27;7.13;;;;;;;-145.18;100.00;46670.16;4993228;28;20268;-76
2022/06/03 03:40:22;;;;;;;9.43;7.00;;;;;;;-145.18;100.00;46677.97;4993606;28;20355;-77
2022/06/03 03:43:02;;;;;;;12.07;7.07;;;;;;;-145.18;100.00;46676.03;4993162;28;20264;-76
2022/06/03 03:45:33;;;;;;;11.50;7.23;;;;;;;-145.18;100.00;46674.06;4993530;28;20307;-76
2022/06/03 03:48:26;;;;;;;9.50;7.23;;;;;;;-145.18;100.00;46681.88;4992929;28;20272;-76
2022/06/03 03:51:09;;;;;;;10.97;6.90;;;;;;;-145.18;100.00;46677.97;4993503;28;20331;-76
2022/06/03 03:53:47;;;;;;;15.97;7.20;;;;;;;-145.18;100.00;46679.94;4992988;28;20272;-76
2022/06/03 03:56:15;;;;;;;10.90;8.07;;;;;;;-145.18;100.00;46677.97;4993609;28;20268;-76
2022/06/03 03:58:46;;;;;;;8.93;7.00;;;;;;;-145.18;100.00;46689.69;4992940;28;20272;-76
2022/06/03 04:01:43;;;;;;;9.60;7.03;;;;;;;-145.18;100.00;46687.75;4993307;28;20355;-76
2022/06/03 04:04:24;;;;;;;12.10;7.07;;;;;;;-145.18;100.00;46685.78;4992923;28;20294;-75
2022/06/03 04:07:11;;;;;;;11.13;7.00;;;;;;;-145.18;100.00;46687.75;4992930;28;20292;-76
2022/06/03 04:09:36;;;;;;;10.77;6.90;;;;;;;-145.18;100.00;46676.03;4986498;28;20268;-76
2022/06/03 04:12:19;;;;;;;8.57;6.83;;;;;;;-145.18;100.00;46676.03;4982166;28;20275;-76
2022/06/03 04:15:39;;;;;;;8.33;7.30;;;;;;;-145.18;100.00;46679.94;4983457;28;20648;-76
2022/06/03 04:18:22;;;;;;;8.93;6.30;;;;;;;-145.18;100.00;46681.88;4942116;29;20339;-76
2022/06/03 04:21:21;;;;;;;9.53;6.20;;;;;;;-145.18;100.00;46679.94;4983674;28;20272;-76
2022/06/03 04:24:39;;;;;;;10.57;6.40;;;;;;;-145.18;100.00;46685.78;4980390;28;20310;-76
2022/06/03 04:27:07;;;;;;;11.10;7.17;;;;;;;-145.18;100.00;46677.97;4968467;28;20288;-76
2022/06/03 04:30:02;;;;;;;10.77;6.70;;;;;;;-145.18;100.00;46676.03;4975548;28;20275;-76
2022/06/03 04:33:04;;;;;;;10.00;7.37;;;;;;;-145.18;100.00;46670.16;4975607;28;20275;-76
2022/06/03 04:35:52;;;;;;;8.07;6.50;;;;;;;-145.18;100.00;46662.34;4977826;28;20269;-76
2022/06/03 04:39:04;;;;;;;8.57;6.60;;;;;;;-145.18;100.00;46660.41;4972907;28;20265;-76
2022/06/03 04:41:48;;;;;;;9.97;6.77;;;;;;;-145.18;100.00;46658.44;4973120;28;20330;-76
2022/06/03 04:44:16;;;;;;;10.93;6.83;;;;;;;-145.18;100.00;46646.72;4972489;28;20758;-75
2022/06/03 04:46:44;;;;;;;8.63;6.70;;;;;;;-145.18;100.00;46631.09;4972724;28;20300;-76
2022/06/03 04:49:24;;;;;;;8.57;6.47;;;;;;;-145.18;100.00;46640.88;4972008;28;20272;-76
2022/06/03 04:52:35;;;;;;;8.60;6.50;;;;;;;-145.18;100.00;46629.13;4974685;28;20288;-75
2022/06/03 04:55:22;;;;;;;11.47;6.43;;;;;;;-145.18;100.00;46584.22;4972380;28;20287;-77
2022/06/03 04:58:30;;;;;;;9.50;6.70;;;;;;;-145.18;100.00;46576.41;4971961;28;20264;-76
2022/06/03 05:01:44;;;;;;;9.37;6.40;;;;;;;-145.18;100.00;46566.63;4978754;28;20285;-75
2022/06/03 05:04:09;;;;;;;9.47;7.13;;;;;;;-145.18;100.00;46558.81;4971294;28;20293;-76
2022/06/03 05:07:05;;;;;;;11.13;6.30;;;;;;;-145.18;100.00;46549.06;4972233;28;20288;-76
2022/06/03 05:09:48;;;;;;;9.20;6.30;;;;;;;-145.18;100.00;46543.19;4987402;28;20041;-75
2022/06/03 05:12:17;;;;;;;9.67;6.30;;;;;;;-145.18;100.00;46539.28;4972540;28;20758;-76
2022/06/03 05:15:16;;;;;;;10.20;6.50;;;;;;;-145.18;100.00;46551.00;4972173;28;20264;-76
2022/06/03 05:18:25;;;;;;;10.10;6.70;;;;;;;-145.18;100.00;46545.16;4972061;28;20118;-75
2022/06/03 05:21:27;;;;;;;12.93;7.20;;;;;;;-145.18;100.00;46537.34;4962908;28;20093;-76
2022/06/03 05:24:04;;;;;;;7.63;6.80;;;;;;;-145.18;100.00;46539.28;4957915;28;20279;-76
2022/06/03 05:26:29;;;;;;;10.47;6.50;;;;;;;-145.18;100.00;46543.19;4972430;28;20446;-76
2022/06/03 05:29:04;;;;;;;9.80;6.03;;;;;;;-145.18;100.00;46543.19;4977951;28;20047;-76
2022/06/03 05:31:41;;;;;;;8.83;6.70;;;;;;;-145.18;100.00;46551.00;4972854;28;20030;-76
2022/06/03 05:34:31;;;;;;;9.37;6.73;;;;;;;-145.18;100.00;46543.19;4981293;28;20042;-76
2022/06/03 05:37:15;;;;;;;10.53;6.80;;;;;;;-145.18;100.00;46547.09;4991146;28;20483;-76
2022/06/03 05:40:11;;;;;;;8.97;6.37;;;;;;;-145.18;100.00;46552.97;4987930;28;20034;-76
2022/06/03 05:43:08;;;;;;;9.93;6.28;;;;;;;-145.18;100.00;46547.09;4985611;28;20439;-76
2022/06/03 05:46:03;;;;;;;9.18;6.72;;;;;;;-145.18;100.00;46547.09;4988652;28;20034;-76
2022/06/03 05:48:32;;;;;;;8.65;6.53;;;;;;;-145.18;100.00;46556.88;4989403;28;20041;-76
2022/06/03 05:51:05;;;;;;;11.60;7.00;;;;;;;-145.18;100.00;46552.97;4990344;28;20033;-76
2022/06/03 05:53:39;;;;;;;10.07;6.43;;;;;;;-145.18;100.00;46558.81;4990697;28;20504;-76
2022/06/03 05:56:32;;;;;;;9.07;6.63;;;;;;;-145.18;100.00;46562.72;4987414;28;20034;-76
2022/06/03 05:59:03;;;;;;;10.83;6.73;;;;;;;-145.18;100.00;46560.78;4990228;28;20372;-76
2022/06/03 06:01:59;;;;;;;9.80;7.20;;;;;;;-145.18;100.00;46556.88;4990539;28;20035;-76
2022/06/03 06:04:50;;;;;;;10.40;6.93;;;;;;;-145.18;100.00;46554.91;4989877;28;20066;-76
2022/06/03 06:07:21;;;;;;;8.77;6.63;;;;;;;-145.18;100.00;46554.91;4990331;28;20095;-76
2022/06/03 06:10:23;;;;;;;8.63;6.87;;;;;;;-145.18;100.00;46566.63;4989172;28;20033;-76
2022/06/03 06:13:15;;;;;;;9.77;6.57;;;;;;;-145.18;100.00;46562.72;4980369;28;20114;-76
2022/06/03 06:16:08;;;;;;;15.13;7.27;;;;;;;-145.18;100.00;46558.81;4986585;28;20039;-76
2022/06/03 06:18:56;;;;;;;10.93;7.17;;;;;;;-145.18;100.00;46562.72;4993999;28;20050;-75
2022/06/03 06:21:44;;;;;;;9.17;6.43;;;;;;;-145.18;100.00;46566.63;4982765;28;20038;-76
2022/06/03 06:24:12;;;;;;;9.17;6.50;;;;;;;-145.18;100.00;46564.69;4994082;28;20554;-76
2022/06/03 06:27:00;;;;;;;10.70;6.33;;;;;;;-145.18;100.00;46564.69;4994905;28;20034;-76
2022/06/03 06:29:38;;;;;;;11.53;7.03;;;;;;;-145.18;100.00;46558.81;4954979;28;20049;-77
2022/06/03 06:32:10;;;;;;;11.63;6.53;;;;;;;-145.18;100.00;46564.69;4993201;28;20061;-76
2022/06/03 06:34:55;;;;;;;8.47;6.50;;;;;;;-145.18;100.00;46556.88;4993633;28;20372;-77
2022/06/03 06:37:33;;;;;;;10.55;6.93;;;;;;;-145.18;100.00;46562.72;4994691;28;20475;-76
2022/06/03 06:40:07;;;;;;;14.13;7.33;;;;;;;-145.18;100.00;46576.41;4985418;28;20080;-76
2022/06/03 06:43:09;;;;;;;10.73;6.80;;;;;;;-145.18;100.00;46566.63;4972738;28;20480;-77
2022/06/03 06:45:59;;;;;;;8.10;6.90;;;;;;;-145.18;100.00;46588.13;4974606;28;20376;-76
2022/06/03 06:49:12;;;;;;;12.50;6.50;;;;;;;-145.18;100.00;46574.44;4973971;28;20534;-76
2022/06/03 06:51:59;;;;;;;14.23;7.00;;;;;;;-145.18;100.00;46572.50;4878229;29;20064;-76
2022/06/03 06:54:53;;;;;;;10.50;7.07;;;;;;;-145.18;100.00;46560.78;4973776;28;20034;-76
2022/06/03 06:57:23;;;;;;;9.90;6.67;;;;;;;-145.18;100.00;46586.16;4991951;28;20479;-76
2022/06/03 06:59:57;;;;;;;7.60;6.53;;;;;;;-145.18;100.00;46611.56;4992488;28;20037;-76
2022/06/03 07:02:42;;;;;;;10.47;6.57;;;;;;;-145.18;100.00;46605.69;4994362;28;20030;-77
2022/06/03 07:05:20;;;;;;;8.80;5.97;;;;;;;-145.18;100.00;46576.41;4994051;28;20097;-77
2022/06/03 07:08:18;;;;;;;11.07;6.33;;;;;;;-145.18;100.00;46576.41;4993818;28;20037;-77
2022/06/03 07:10:54;;;;;;;8.70;6.90;;;;;;;-145.18;100.00;46588.13;4989111;28;20073;-77
2022/06/03 07:13:35;;;;;;;8.03;6.27;;;;;;;-145.18;100.00;46603.75;4993748;28;20018;-77
2022/06/03 07:19:51;;;;;;;8.93;5.73;;;;;;;-145.18;100.00;46593.97;4993893;28;20088;-77
2022/06/03 07:22:31;;;;;;;8.47;5.90;;;;;;;-145.18;100.00;46586.16;4993808;28;20093;-77
2022/06/03 07:25:22;;;;;;;7.73;6.40;;;;;;;-145.18;100.00;46613.50;4993530;28;20069;-77
2022/06/03 07:28:03;;;;;;;6.87;6.07;;;;;;;-145.18;100.00;46621.31;4992826;28;20038;-77
2022/06/03 07:30:35;;;;;;;9.00;5.73;;;;;;;-145.18;100.00;46609.59;4993901;28;20030;-77
2022/06/03 07:33:35;;;;;;;10.30;6.20;;;;;;;-145.18;100.00;46609.59;4993493;28;20033;-77
2022/06/03 07:36:15;;;;;;;6.70;6.00;;;;;;;-145.18;100.00;46593.97;4993151;28;20030;-77
2022/06/03 07:38:48;;;;;;;8.90;5.77;;;;;;;-145.18;100.00;46611.56;4993247;28;20034;-77
2022/06/03 07:41:22;;;;;;;6.73;5.73;;;;;;;-145.18;100.00;46613.50;4993653;28;20022;-77
2022/06/03 07:43:54;;;;;;;8.07;6.10;;;;;;;-145.18;100.00;46629.13;4993180;28;20557;-77
2022/06/03 07:46:43;;;;;;;7.13;6.03;;;;;;;-145.18;100.00;46668.22;4993706;28;20046;-77
2022/06/03 07:49:09;;;;;;;9.07;6.13;;;;;;;-145.18;100.00;46617.41;4993015;28;20165;-77
2022/06/03 07:51:41;;;;;;;11.37;5.73;;;;;;;-145.18;100.00;46640.88;4993489;28;20043;-77
2022/06/03 07:54:30;;;;;;;7.07;5.33;;;;;;;-145.18;100.00;46633.06;4992796;28;20034;-77
2022/06/03 07:57:07;;;;;;;8.43;5.63;;;;;;;-145.18;100.00;46625.22;4983817;28;20050;-77
2022/06/03 07:59:35;;;;;;;10.27;6.63;;;;;;;-145.18;100.00;46635.00;4984289;28;20080;-77
2022/06/03 08:02:14;;;;;;;9.87;5.87;;;;;;;-145.18;100.00;47062.81;4988480;28;20058;-77
2022/06/03 08:04:40;;;;;;;10.73;5.97;;;;;;;-145.18;100.00;46752.19;4992126;28;20046;-77
2022/06/03 08:12:57;;;;;;;8.30;5.53;;;;;;;-145.18;100.00;46734.63;4992782;28;20041;-78
2022/06/03 08:15:28;;;;;;;7.10;5.17;;;;;;;-145.18;100.00;46931.91;4992663;28;20038;-78
2022/06/03 08:17:55;;;;;;;7.27;5.47;;;;;;;-145.18;100.00;47066.72;4992344;28;20030;-78
2022/06/03 08:20:23;;;;;;;7.97;6.73;;;;;;;-145.18;100.00;47178.06;4992655;28;20038;-78
2022/06/03 08:22:50;;;;;;;7.33;5.20;;;;;;;-145.18;100.00;47101.88;4992649;28;20042;-78
2022/06/03 08:25:25;;;;;;;10.23;5.53;;;;;;;-145.18;100.00;47211.28;4992504;28;20022;-78
2022/06/03 08:27:52;;;;;;;8.33;5.67;;;;;;;-145.18;100.00;47168.28;4992194;28;20034;-78
2022/06/03 08:30:27;;;;;;;6.80;4.90;;;;;;;-145.18;100.00;47168.28;4992360;28;20034;-78
2022/06/03 08:32:56;;;;;;;12.50;5.00;;;;;;;-145.18;100.00;47164.38;4991653;28;20034;-78
2022/06/03 08:35:32;;;;;;;9.60;4.73;;;;;;;-145.18;100.00;47158.53;4981293;28;20042;-78
2022/06/03 08:38:08;;;;;;;6.95;5.35;;;;;;;-145.18;100.00;47139.00;4982303;28;20037;-79
2022/06/03 08:40:55;;;;;;;7.60;5.20;;;;;;;-145.18;100.00;47144.84;4984950;28;20117;-78
2022/06/03 08:43:47;;;;;;;8.93;5.30;;;;;;;-145.18;100.00;47119.47;4988874;28;20027;-78
2022/06/03 08:46:27;;;;;;;7.60;5.10;;;;;;;-145.18;100.00;47129.22;4978285;28;20038;-78
2022/06/03 08:49:01;;;;;;;6.00;4.70;;;;;;;-145.18;100.00;47121.41;4991647;28;20033;-79
2022/06/03 08:51:36;;;;;;;6.47;4.73;;;;;;;-145.18;100.00;47123.38;4991045;28;20038;-79
2022/06/03 08:54:31;;;;;;;8.48;5.00;;;;;;;-145.18;100.00;47113.59;4991079;28;20038;-78
2022/06/03 08:57:02;;;;;;;10.37;5.37;;;;;;;-145.18;100.00;47107.72;4988791;28;20044;-79
2022/06/03 08:59:35;;;;;;;6.00;4.50;;;;;;;-145.18;100.00;47094.06;4990860;28;20038;-79
2022/06/03 09:02:06;;;;;;;6.23;4.67;;;;;;;-145.18;100.00;47082.34;4974243;28;20487;-79
2022/06/03 09:04:40;;;;;;;7.23;4.83;;;;;;;-145.18;100.00;47097.97;4988573;28;20129;-78
2022/06/03 09:07:24;;;;;;;8.50;4.43;;;;;;;-145.18;100.00;47090.16;4990353;28;20038;-77
2022/06/03 09:10:14;;;;;;;7.50;5.17;;;;;;;-145.18;100.00;47097.97;4991427;28;20054;-76
2022/06/03 09:13:06;;;;;;;11.63;5.00;;;;;;;-145.18;100.00;47080.38;4991673;28;20093;-77
2022/06/03 09:15:39;;;;;;;9.93;4.43;;;;;;;-145.18;100.00;47086.25;4987366;28;20403;-78
2022/06/03 09:18:11;;;;;;;6.47;4.63;;;;;;;-145.18;100.00;47072.56;4974403;28;20495;-77
2022/06/03 09:20:43;;;;;;;6.37;4.50;;;;;;;-145.18;100.00;47084.28;4972006;28;20479;-76
2022/06/03 09:23:11;;;;;;;5.10;4.60;;;;;;;-145.18;100.00;47072.56;4972027;28;20165;-77
2022/06/03 09:25:43;;;;;;;6.37;4.80;;;;;;;-145.18;100.00;47053.03;4985665;28;20042;-77
2022/06/03 09:28:15;;;;;;;8.20;5.03;;;;;;;-145.18;100.00;47070.63;4981809;28;20054;-77
2022/06/03 09:30:41;;;;;;;8.40;4.63;;;;;;;-145.18;100.00;47062.81;4984932;28;20045;-77
2022/06/03 09:33:11;;;;;;;8.63;4.70;;;;;;;-145.18;100.00;47056.94;4972050;28;20089;-77
2022/06/03 09:35:42;;;;;;;8.67;4.90;;;;;;;-145.18;100.00;47058.91;4983264;28;20034;-77
2022/06/03 09:38:10;;;;;;;6.53;4.90;;;;;;;-145.18;100.00;47045.22;4989900;28;20647;-76
2022/06/03 09:40:42;;;;;;;6.30;4.40;;;;;;;-145.18;100.00;47060.84;4979595;28;20037;-77
2022/06/03 09:43:22;;;;;;;5.67;4.67;;;;;;;-145.18;100.00;47047.19;4980532;28;20030;-77
2022/06/03 09:45:52;;;;;;;7.73;4.37;;;;;;;-145.18;100.00;47047.19;4979577;28;20677;-77
2022/06/03 09:48:20;;;;;;;5.20;4.23;;;;;;;-145.18;100.00;47049.13;4973392;28;20038;-78
2022/06/03 09:50:49;;;;;;;6.13;4.27;;;;;;;-145.18;100.00;47056.94;4987533;28;20611;-77
2022/06/03 09:53:19;;;;;;;7.27;3.40;;;;;;;-145.18;100.00;47045.22;4988889;28;20123;-78
2022/06/03 09:55:51;;;;;;;6.13;3.90;;;;;;;-145.18;100.00;47035.44;4988027;28;20471;-77
2022/06/03 09:58:21;;;;;;;6.03;3.03;;;;;;;-145.18;100.00;47045.22;4989385;28;20034;-77
2022/06/03 10:00:53;;;;;;;7.13;3.50;;;;;;;-145.18;100.00;47023.72;4989391;28;20026;-77
2022/06/03 10:03:20;;;;;;;4.20;3.37;;;;;;;-145.18;100.00;47019.81;4988964;28;20050;-78
2022/06/03 10:05:49;;;;;;;5.90;3.03;;;;;;;-145.18;100.00;47027.63;4989599;28;20060;-77
2022/06/03 10:08:18;;;;;;;3.97;3.20;;;;;;;-145.18;100.00;47019.81;4990536;28;20106;-78
2022/06/03 10:23:56;;;;;;;3.90;2.45;;;;;;;-145.18;100.00;47012.00;4973987;28;20482;-78
2022/06/03 10:26:26;;;;;;;5.13;2.27;;;;;;;-145.18;100.00;47015.91;4987947;28;20035;-78
2022/06/03 10:28:54;;;;;;;3.87;2.30;;;;;;;-145.18;100.00;47004.19;4984413;28;20035;-78
2022/06/03 10:31:27;;;;;;;2.90;2.27;;;;;;;-145.18;100.00;47015.91;5001037;28;20031;-78
2022/06/03 10:33:58;;;;;;;6.40;2.60;;;;;;;-145.18;100.00;47004.19;4990132;28;20390;-78
2022/06/03 10:36:44;;;;;;;4.27;2.30;;;;;;;-145.18;100.00;47015.91;4991043;28;20036;-78
2022/06/03 10:39:13;;;;;;;;;;;;;;;-145.18;100.00;47012.00;4990694;28;20045;-78
2022/06/03 10:41:43;;;;;;;3.03;2.50;;;;;;;-145.18;100.00;47008.09;4990678;28;20011;-78
2022/06/03 10:44:16;;;;;;;4.63;1.80;;;;;;;-145.18;100.00;47002.25;4990735;28;20045;-78
2022/06/03 10:47:02;;;;;;;6.87;2.20;;;;;;;-145.18;100.00;47004.19;4987380;28;20487;-78
2022/06/03 10:49:35;;;;;;;4.68;2.13;;;;;;;-145.18;100.00;47002.25;4989974;28;20042;-78
2022/06/03 11:03:24;;;;;;;2.33;2.00;;;;;;;-145.18;100.00;47015.91;4973397;28;20057;-78
2022/06/03 11:05:49;;;;;;;5.57;2.03;;;;;;;-145.18;100.00;46988.56;4974473;28;20039;-78
2022/06/03 11:08:14;;;;;;;2.67;1.83;;;;;;;-145.18;100.00;46996.38;4974833;28;20038;-79
2022/06/03 11:10:49;;;;;;;7.90;1.80;;;;;;;-145.18;100.00;46984.66;4974539;28;20037;-79
2022/06/03 11:13:25;;;;;;;4.35;1.83;;;;;;;-145.18;100.00;46996.38;4974903;28;20480;-78
2022/06/03 11:15:50;;;;;;;2.42;1.52;;;;;;;-145.18;100.00;46992.47;4974649;28;20167;-79
2022/06/03 11:18:17;;;;;;;2.40;2.00;;;;;;;-145.18;100.00;46969.03;4974609;28;20047;-79
2022/06/03 11:20:45;;;;;;;7.17;1.53;;;;;;;-145.18;100.00;46971.00;4973908;28;20030;-79
2022/06/03 11:23:13;;;;;;;3.73;1.80;;;;;;;-145.18;100.00;46992.47;4974705;28;20047;-79
2022/06/03 11:25:46;;;;;;;3.00;1.80;;;;;;;-145.18;100.00;46996.38;4973917;28;20034;-79
2022/06/03 11:28:18;;;;;;;2.23;1.80;;;;;;;-145.18;100.00;46988.56;4974486;28;20035;-79
2022/06/03 11:30:53;;;;;;;3.23;1.40;;;;;;;-145.18;100.00;47000.28;4973693;28;20026;-79
2022/06/03 11:33:51;;;;;;;2.55;1.80;;;;;;;-145.18;100.00;46988.56;4974575;28;20053;-78
2022/06/03 11:36:21;;;;;;;4.37;2.10;;;;;;;-145.18;100.00;46994.44;4962485;28;20459;-79
2022/06/03 11:39:02;;;;;;;5.70;2.10;;;;;;;-145.18;100.00;46988.56;4973503;28;20535;-79
2022/06/03 11:41:34;;;;;;;2.27;1.70;;;;;;;-145.18;100.00;46980.75;4974360;28;20035;-79
2022/06/03 11:44:10;;;;;;;3.53;1.63;;;;;;;-145.18;100.00;46976.84;4973589;28;20066;-79
2022/06/03 11:46:56;;;;;;;;;;;;;;;-145.18;100.00;46963.19;4974596;28;20104;-78
2022/06/03 11:49:22;;;;;;;3.77;1.60;;;;;;;-145.18;96.67;46951.44;4973360;28;19926;-79
2022/06/03 11:51:49;;;;;;;3.23;1.60;;;;;;;-145.18;100.00;46953.41;4973529;28;20093;-79
2022/06/03 11:54:18;;;;;;;4.23;1.80;;;;;;;-145.18;100.00;46941.69;4973611;28;20067;-79
2022/06/03 11:56:45;;;;;;;5.20;1.77;;;;;;;-145.18;100.00;46978.81;4973786;28;20065;-79
2022/06/03 11:59:33;;;;;;;7.90;1.57;;;;;;;-145.18;90.14;46920.19;4973495;28;20114;-79
2022/06/03 12:02:10;;;;;;;3.15;1.40;;;;;;;-145.18;93.50;46928.00;4973454;28;20694;-79
2022/06/03 12:04:55;;;;;;;2.10;1.23;;;;;;;-145.18;90.68;46957.31;4955927;28;20577;-79
2022/06/03 12:07:30;;;;;;;1.80;1.23;;;;;;;-145.18;86.20;46931.91;4973561;28;20038;-79
2022/06/03 12:10:13;;;;;;;1.60;1.10;;;;;;;-145.18;85.06;46922.16;4973522;28;20022;-79
2022/06/03 12:15:32;;;;;;;6.50;1.67;;;;;;;-145.18;84.75;46926.06;4972287;28;20506;-80
2022/06/03 12:18:14;;;;;;;3.90;1.58;;;;;;;-145.18;88.72;46935.81;4973489;28;20030;-80
2022/06/03 12:20:48;;;;;;;2.07;1.67;;;;;;;-145.18;89.15;46937.78;4972896;28;20109;-80
2022/06/03 12:23:13;;;;;;;2.70;1.38;;;;;;;-145.18;90.77;46929.97;4973417;28;20384;-80
2022/06/03 12:25:55;;;;;;;3.65;1.38;;;;;;;-145.18;80.15;46922.16;4972883;28;20046;-80
2022/06/03 12:28:41;;;;;;;4.75;1.02;;;;;;;-145.18;80.44;46918.25;4973593;28;20027;-80
2022/06/03 12:31:43;;;;;;;4.13;1.30;;;;;;;-145.18;82.82;46924.09;4973206;28;20043;-80
2022/06/03 12:34:27;;;;;;;3.15;1.75;;;;;;;-145.18;80.90;46929.97;4972668;28;20046;-80
2022/06/03 12:37:00;;;;;;;4.72;1.75;;;;;;;-145.18;89.26;46924.09;4973071;28;20062;-81
2022/06/03 12:39:31;;;;;;;3.00;1.58;;;;;;;-145.18;85.23;46920.19;4972799;28;20026;-80
2022/06/03 12:42:05;;;;;;;2.53;1.48;;;;;;;-145.18;85.73;46920.19;4972946;28;20050;-81
2022/06/03 12:44:36;;;;;;;3.35;1.58;;;;;;;-145.18;84.50;46914.34;4972453;28;20717;-81
2022/06/03 12:47:26;;;;;;;2.85;1.90;;;;;;;-145.18;80.34;46914.34;4972789;28;20046;-81
2022/06/03 12:49:53;;;;;;;2.45;1.40;;;;;;;-145.18;78.93;46924.09;4972397;28;20428;-81
2022/06/03 12:52:22;;;;;;;1.58;1.27;;;;;;;-145.18;80.74;46912.38;4973373;28;20058;-78